Jennifer C — WDI8828 — position and weather

sailwx.info

Track history (hours):
 
Tides and Currents Weather Stations Pressure Air Temp Water Temp Dewpoint Dewpoint Depression Visibility Wind Speed Wind Dir Waves Ship Positions

Jennifer C

Owner: Cross Sound Ferry Services, Inc, New London, CT. More information available from US FCC via Universal Licensing System and Coast Guard Vessel Documentation Center.

Last reported at 2018-May-27 00:58 UTC. Time now 2018-May-27 03:17 UTC.
Position N 41°12' W 072°13'.

Length 63 m.

Type: Passenger vessel. MMSI: 367742540.

Date/timePositionNaut miles runAvg speedWind from/ knotsBaromVisibWave heightAir tempDewpointWater temp
2018-May-27 00:58N 41°12' W 072°13'3 1.4
2018-May-26 22:55N 41°14' W 072°10'511.1
2018-May-26 22:27N 41°10' W 072°13'2 1.6
2018-May-26 21:04N 41°12' W 072°13'112.3
2018-May-26 21:00N 41°12' W 072°12'5 2.4
2018-May-26 18:46N 41°15' W 072°07'413.4
2018-May-26 18:30N 41°13' W 072°10'3 2.8
2018-May-26 17:16N 41°11' W 072°13'3 9.8
2018-May-26 17:00N 41°13' W 072°12'2 1.0
2018-May-26 14:42N 41°14' W 072°09'0 0.0
2018-May-26 02:31N 41°14' W 072°09'014.5
2018-May-26 02:31N 41°14' W 072°10'4 3.1
2018-May-26 01:13N 41°12' W 072°15'211.8
2018-May-26 01:00N 41°14' W 072°12'4 1.8
2018-May-25 22:55N 41°15' W 072°07'511.0
2018-May-25 22:30N 41°12' W 072°12'2 0.9
2018-May-25 20:50N 41°13' W 072°11'412.3
2018-May-25 20:28N 41°17' W 072°06'1 0.1
2018-May-25 15:04N 41°17' W 072°06'110.6
2018-May-25 15:00N 41°16' W 072°06'611.3
2018-May-25 14:30N 41°12' W 072°12'1 0.8
2018-May-25 13:05N 41°12' W 072°13'212.0
2018-May-25 12:54N 41°13' W 072°11'2 0.1
2018-May-25 00:41N 41°14' W 072°09'212.6
2018-May-25 00:30N 41°13' W 072°11'1 0.9
2018-May-24 23:01N 41°12' W 072°13'013.0
2018-May-24 23:01N 41°12' W 072°13'5 2.5
2018-May-24 20:52N 41°15' W 072°08'410.9
2018-May-24 20:30N 41°13' W 072°11'3 2.9
2018-May-24 19:18N 41°09' W 072°13'3 9.2
2018-May-24 19:00N 41°12' W 072°13'612.2
2018-May-24 18:30N 41°17' W 072°07'3 1.6
2018-May-24 16:35N 41°14' W 072°09'114.0
2018-May-24 16:30N 41°13' W 072°10'2 1.5
2018-May-24 15:05N 41°12' W 072°12'210.2
2018-May-24 14:54N 41°13' W 072°10'2 0.2
2018-May-24 01:06N 41°12' W 072°13'110.1
2018-May-24 01:00N 41°13' W 072°12'611.1
2018-May-24 00:30N 41°16' W 072°07'0 0.2
2018-May-23 22:57N 41°17' W 072°06'511.8
2018-May-23 22:30N 41°13' W 072°11'1 0.9
2018-May-23 20:57N 41°12' W 072°13'5 2.5
2018-May-23 18:48N 41°15' W 072°07'412.1
2018-May-23 18:28N 41°13' W 072°11'2 1.1
2018-May-23 17:04N 41°12' W 072°13'216.0
2018-May-23 16:58N 41°14' W 072°11'4 1.8
2018-May-23 14:44N 41°15' W 072°07'314.2
2018-May-23 14:30N 41°13' W 072°10'3 1.9
2018-May-23 13:06N 41°12' W 072°13'210.5
2018-May-23 12:53N 41°13' W 072°11'5 0.4
2018-May-23 00:53N 41°17' W 072°06'614.1
2018-May-23 00:28N 41°13' W 072°11'1 0.4
2018-May-22 22:56N 41°13' W 072°12'1 0.2
2018-May-22 20:24N 41°12' W 072°12'1 0.9
2018-May-22 18:50N 41°13' W 072°11'6 3.6
2018-May-22 17:03N 41°18' W 072°06'112.1
2018-May-22 16:57N 41°17' W 072°06'612.2
2018-May-22 16:28N 41°12' W 072°11'4 3.9
2018-May-22 15:26N 41°09' W 072°14'3 7.4
2018-May-22 14:58N 41°12' W 072°12'611.6
2018-May-22 14:30N 41°16' W 072°07'3 2.5
2018-May-22 13:07N 41°19' W 072°05'312.2
2018-May-22 12:51N 41°16' W 072°06'513.9
2018-May-22 12:30N 41°13' W 072°11'1 0.1
2018-May-22 00:52N 41°13' W 072°11'3 1.7
2018-May-21 22:48N 41°15' W 072°07'413.5
2018-May-21 22:30N 41°13' W 072°11'1 0.5
2018-May-21 20:50N 41°13' W 072°11'5 2.7
2018-May-21 19:02N 41°17' W 072°06'012.7
2018-May-21 19:00N 41°16' W 072°06'611.1
2018-May-21 18:28N 41°12' W 072°12'0 0.3
2018-May-21 16:59N 41°12' W 072°12'612.5
2018-May-21 16:30N 41°16' W 072°07'1 0.3
2018-May-21 14:54N 41°16' W 072°06'613.1
2018-May-21 14:27N 41°12' W 072°12'1 0.4
2018-May-21 12:59N 41°12' W 072°12'7 0.6
2018-May-21 00:50N 41°17' W 072°06'413.5
2018-May-21 00:30N 41°13' W 072°09'1 0.4
2018-May-20 22:47N 41°14' W 072°10'1 0.4
2018-May-20 20:39N 41°14' W 072°09'213.0
2018-May-20 20:30N 41°12' W 072°11'2 0.4
2018-May-20 16:38N 41°14' W 072°10'211.4
2018-May-20 16:29N 41°13' W 072°11'1 0.6
2018-May-20 14:50N 41°13' W 072°11'4 1.9
2018-May-20 12:45N 41°15' W 072°07'514.5
2018-May-20 12:25N 41°12' W 072°11'1 0.0
2018-May-20 00:58N 41°12' W 072°12'6 3.0
2018-May-19 22:51N 41°16' W 072°06'514.2
2018-May-19 22:28N 41°12' W 072°11'1 1.0
2018-May-19 21:10N 41°12' W 072°13'210.5
2018-May-19 20:58N 41°14' W 072°11'3 1.4
2018-May-19 18:53N 41°15' W 072°08'511.3
2018-May-19 18:29N 41°12' W 072°12'1 0.8
2018-May-19 16:56N 41°12' W 072°13'7 4.1
2018-May-19 15:11N 41°17' W 072°05'210.7
2018-May-19 15:00N 41°16' W 072°08'3 1.5
2018-May-19 12:50N 41°13' W 072°11'5 0.4
2018-May-19 00:56N 41°17' W 072°06'512.1
2018-May-19 00:30N 41°13' W 072°11'4 3.5
2018-May-18 23:18N 41°09' W 072°14'310.6
2018-May-18 23:00N 41°12' W 072°12'611.2
2018-May-18 22:30N 41°16' W 072°07'1 0.8
2018-May-18 20:53N 41°17' W 072°06'513.5
2018-May-18 20:30N 41°13' W 072°10'1 0.2
2018-May-18 16:38N 41°14' W 072°10'210.1
2018-May-18 16:27N 41°13' W 072°12'1 0.4
2018-May-18 14:54N 41°12' W 072°12'4 2.0
2018-May-18 12:45N 41°15' W 072°08'312.0
2018-May-18 12:29N 41°13' W 072°11'1 0.1
2018-May-18 00:53N 41°12' W 072°12'5 2.5
2018-May-17 22:46N 41°15' W 072°06'514.0
2018-May-17 22:24N 41°12' W 072°12'1 0.5
2018-May-17 21:05N 41°12' W 072°12'110.1
2018-May-17 20:57N 41°13' W 072°11'510.7
2018-May-17 20:30N 41°16' W 072°07'1 0.8
2018-May-17 18:57N 41°17' W 072°05'613.5
2018-May-17 18:30N 41°12' W 072°11'2 0.5
2018-May-17 14:38N 41°14' W 072°09'210.5
2018-May-17 14:24N 41°12' W 072°12'1 0.5
2018-May-17 12:59N 41°12' W 072°12'  
Track history (hours):
 
Tides and Currents Weather Stations Pressure Air Temp Water Temp Dewpoint Dewpoint Depression Visibility Wind Speed Wind Dir Waves Ship Positions

Jennifer C

Owner: Cross Sound Ferry Services, Inc, New London, CT. More information available from US FCC via Universal Licensing System and Coast Guard Vessel Documentation Center.

Last reported at 2018-May-27 00:58 UTC. Time now 2018-May-27 03:17 UTC.
Position N 41°12' W 072°13'.

Length 63 m.

Type: Passenger vessel. MMSI: 367742540.

Date/timePositionNaut miles runAvg speedWind from/ knotsBaromVisibWave heightAir tempDewpointWater temp
2018-May-27 00:58N 41°12' W 072°13'3 1.4
2018-May-26 22:55N 41°14' W 072°10'511.1
2018-May-26 22:27N 41°10' W 072°13'2 1.6
2018-May-26 21:04N 41°12' W 072°13'112.3
2018-May-26 21:00N 41°12' W 072°12'5 2.4
2018-May-26 18:46N 41°15' W 072°07'413.4
2018-May-26 18:30N 41°13' W 072°10'3 2.8
2018-May-26 17:16N 41°11' W 072°13'3 9.8
2018-May-26 17:00N 41°13' W 072°12'2 1.0
2018-May-26 14:42N 41°14' W 072°09'0 0.0
2018-May-26 02:31N 41°14' W 072°09'014.5
2018-May-26 02:31N 41°14' W 072°10'4 3.1
2018-May-26 01:13N 41°12' W 072°15'211.8
2018-May-26 01:00N 41°14' W 072°12'4 1.8
2018-May-25 22:55N 41°15' W 072°07'511.0
2018-May-25 22:30N 41°12' W 072°12'2 0.9
2018-May-25 20:50N 41°13' W 072°11'412.3
2018-May-25 20:28N 41°17' W 072°06'1 0.1
2018-May-25 15:04N 41°17' W 072°06'110.6
2018-May-25 15:00N 41°16' W 072°06'611.3
2018-May-25 14:30N 41°12' W 072°12'1 0.8
2018-May-25 13:05N 41°12' W 072°13'212.0
2018-May-25 12:54N 41°13' W 072°11'2 0.1
2018-May-25 00:41N 41°14' W 072°09'212.6
2018-May-25 00:30N 41°13' W 072°11'1 0.9
2018-May-24 23:01N 41°12' W 072°13'013.0
2018-May-24 23:01N 41°12' W 072°13'5 2.5
2018-May-24 20:52N 41°15' W 072°08'410.9
2018-May-24 20:30N 41°13' W 072°11'3 2.9
2018-May-24 19:18N 41°09' W 072°13'3 9.2
2018-May-24 19:00N 41°12' W 072°13'612.2
2018-May-24 18:30N 41°17' W 072°07'3 1.6
2018-May-24 16:35N 41°14' W 072°09'114.0
2018-May-24 16:30N 41°13' W 072°10'2 1.5
2018-May-24 15:05N 41°12' W 072°12'210.2
2018-May-24 14:54N 41°13' W 072°10'2 0.2
2018-May-24 01:06N 41°12' W 072°13'110.1
2018-May-24 01:00N 41°13' W 072°12'611.1
2018-May-24 00:30N 41°16' W 072°07'0 0.2
2018-May-23 22:57N 41°17' W 072°06'511.8
2018-May-23 22:30N 41°13' W 072°11'1 0.9
2018-May-23 20:57N 41°12' W 072°13'5 2.5
2018-May-23 18:48N 41°15' W 072°07'412.1
2018-May-23 18:28N 41°13' W 072°11'2 1.1
2018-May-23 17:04N 41°12' W 072°13'216.0
2018-May-23 16:58N 41°14' W 072°11'4 1.8
2018-May-23 14:44N 41°15' W 072°07'314.2
2018-May-23 14:30N 41°13' W 072°10'3 1.9
2018-May-23 13:06N 41°12' W 072°13'210.5
2018-May-23 12:53N 41°13' W 072°11'5 0.4
2018-May-23 00:53N 41°17' W 072°06'614.1
2018-May-23 00:28N 41°13' W 072°11'1 0.4
2018-May-22 22:56N 41°13' W 072°12'1 0.2
2018-May-22 20:24N 41°12' W 072°12'1 0.9
2018-May-22 18:50N 41°13' W 072°11'6 3.6
2018-May-22 17:03N 41°18' W 072°06'112.1
2018-May-22 16:57N 41°17' W 072°06'612.2
2018-May-22 16:28N 41°12' W 072°11'4 3.9
2018-May-22 15:26N 41°09' W 072°14'3 7.4
2018-May-22 14:58N 41°12' W 072°12'611.6
2018-May-22 14:30N 41°16' W 072°07'3 2.5
2018-May-22 13:07N 41°19' W 072°05'312.2
2018-May-22 12:51N 41°16' W 072°06'513.9
2018-May-22 12:30N 41°13' W 072°11'1 0.1
2018-May-22 00:52N 41°13' W 072°11'3 1.7
2018-May-21 22:48N 41°15' W 072°07'413.5
2018-May-21 22:30N 41°13' W 072°11'1 0.5
2018-May-21 20:50N 41°13' W 072°11'5 2.7
2018-May-21 19:02N 41°17' W 072°06'012.7
2018-May-21 19:00N 41°16' W 072°06'611.1
2018-May-21 18:28N 41°12' W 072°12'0 0.3
2018-May-21 16:59N 41°12' W 072°12'612.5
2018-May-21 16:30N 41°16' W 072°07'1 0.3
2018-May-21 14:54N 41°16' W 072°06'613.1
2018-May-21 14:27N 41°12' W 072°12'1 0.4
2018-May-21 12:59N 41°12' W 072°12'7 0.6
2018-May-21 00:50N 41°17' W 072°06'413.5
2018-May-21 00:30N 41°13' W 072°09'1 0.4
2018-May-20 22:47N 41°14' W 072°10'1 0.4
2018-May-20 20:39N 41°14' W 072°09'213.0
2018-May-20 20:30N 41°12' W 072°11'2 0.4
2018-May-20 16:38N 41°14' W 072°10'211.4
2018-May-20 16:29N 41°13' W 072°11'1 0.6
2018-May-20 14:50N 41°13' W 072°11'4 1.9
2018-May-20 12:45N 41°15' W 072°07'514.5
2018-May-20 12:25N 41°12' W 072°11'1 0.0
2018-May-20 00:58N 41°12' W 072°12'6 3.0
2018-May-19 22:51N 41°16' W 072°06'514.2
2018-May-19 22:28N 41°12' W 072°11'1 1.0
2018-May-19 21:10N 41°12' W 072°13'210.5
2018-May-19 20:58N 41°14' W 072°11'3 1.4
2018-May-19 18:53N 41°15' W 072°08'511.3
2018-May-19 18:29N 41°12' W 072°12'1 0.8
2018-May-19 16:56N 41°12' W 072°13'7 4.1
2018-May-19 15:11N 41°17' W 072°05'210.7
2018-May-19 15:00N 41°16' W 072°08'3 1.5
2018-May-19 12:50N 41°13' W 072°11'5 0.4
2018-May-19 00:56N 41°17' W 072°06'512.1
2018-May-19 00:30N 41°13' W 072°11'4 3.5
2018-May-18 23:18N 41°09' W 072°14'310.6
2018-May-18 23:00N 41°12' W 072°12'611.2
2018-May-18 22:30N 41°16' W 072°07'1 0.8
2018-May-18 20:53N 41°17' W 072°06'513.5
2018-May-18 20:30N 41°13' W 072°10'1 0.2
2018-May-18 16:38N 41°14' W 072°10'210.1
2018-May-18 16:27N 41°13' W 072°12'1 0.4
2018-May-18 14:54N 41°12' W 072°12'4 2.0
2018-May-18 12:45N 41°15' W 072°08'312.0
2018-May-18 12:29N 41°13' W 072°11'1 0.1
2018-May-18 00:53N 41°12' W 072°12'5 2.5
2018-May-17 22:46N 41°15' W 072°06'514.0
2018-May-17 22:24N 41°12' W 072°12'1 0.5
2018-May-17 21:05N 41°12' W 072°12'110.1
2018-May-17 20:57N 41°13' W 072°11'510.7
2018-May-17 20:30N 41°16' W 072°07'1 0.8
2018-May-17 18:57N 41°17' W 072°05'613.5
2018-May-17 18:30N 41°12' W 072°11'2 0.5
2018-May-17 14:38N 41°14' W 072°09'210.5
2018-May-17 14:24N 41°12' W 072°12'1 0.5
2018-May-17 12:59N 41°12' W 072°12'  

Dump ship's entire track history